TLSO2: Arkansas River, Tulsa, OK

                                SHEF ID:       TLSO2     Arkansas River at Tulsa, OK
STATION TYPE: Stream Gauge
Regulating: Stage = 15.00, Flow = 96489

PRECIP STAGE STAGE(2) RIV-FLOW WTR-TEMP DIS-OXY BAT-LOAD
in ft ft cfs F mg/l volt
Ccp-Rev Ccp-Rev Ccp-Rev Ccp-Rev Ccp-Rev Ccp-Rev Ccp-Rev
(America/Chicago)
02/16 00:00 0.00 3.76 ---- 2499 54.97 9.77 ----
02/16 01:00 0.00 3.77 ---- 2532 54.86 7.39 ----
02/16 02:00 0.00 3.78 ---- 2566 54.70 7.48 ----
02/16 03:00 0.00 3.80 ---- 2634 54.63 6.76 ----
02/16 04:00 0.00 3.80 ---- 2634 54.54 5.90 ----
02/16 05:00 0.00 3.81 ---- 2668 54.27 8.69 ----
02/16 06:00 0.00 3.83 ---- 2738 54.10 12.20 ----
02/16 07:00 0.00 3.79 ---- 2600 53.98 13.51 ----
02/16 08:00 0.00 3.81 ---- 2668 53.85 13.58 ----
02/16 09:00 0.00 3.80 ---- 2634 53.76 13.99 ----
02/16 10:00 0.00 3.69 ---- 2272 53.58 14.19 ----
02/16 11:00 0.00 3.56 ---- 1883 53.53 14.43 ----
02/16 12:00 0.00 3.52 ---- 1772 53.91 14.60 ----
02/16 13:00 0.00 3.42 ---- 1511 54.36 14.67 ----
02/16 14:00 0.00 3.33 ---- 1296 55.20 15.04 ----
02/16 15:00 0.00 3.35 ---- 1342 56.34 15.76 ----
02/16 16:00 0.00 3.52 ---- 1772 57.04 16.53 ----
02/16 17:00 0.00 3.77 ---- 2532 57.90 17.40 ----
02/16 18:00 0.00 4.05 ---- 3572 57.81 16.78 ----
02/16 19:00 0.00 4.34 ---- 4871 57.47 15.21 ----
02/16 20:00 0.00 4.46 ---- 5477 57.54 14.74 ----
02/16 21:00 0.00 4.38 ---- 5068 57.45 14.76 ----
02/16 22:00 0.00 4.43 ---- 5321 57.18 14.24 ----
02/16 23:00 0.00 4.40 ---- 5169 56.93 13.76 ----
Data processed at Tue 17Feb2026 05:48 GMT

NOTICE: If you are parsing this page

Please convert to using our Data API. Starting early 2026 we will be migrating to: https://water.usace.army.mil with modern pages rendered in JavaScript. When this migration completes you will no longer be able to scrape this page! CWMSDataAPI (CDA)

Timeseries IDs (TSIDs)

TSIDs used from left to right in the data table
TULA.Precip-Inc.Total.1Hour.1Hour.Ccp-Rev
TULA.Stage.Inst.1Hour.0.Ccp-Rev
TULA.Stage-Alt.Inst.1Hour.0.Ccp-Rev
TULA.Flow.Inst.1Hour.0.Ccp-Rev
TULA.Temp-Water.Inst.1Hour.0.Ccp-Rev
TULA.Conc-DO.Inst.1Hour.0.Ccp-Rev
TULA.Volt-Battery Load.Inst.1Hour.0.Ccp-Rev

                            

All information presented herein is the property of the government of the United States of America and may be revised or deleted at any time without prior notice. Dissemination of this information without the expressed written consent of the Public Affairs Office, Tulsa District U.S. Army Corps of Engineers is strictly prohibited. These data are gathered electronically and, as presented, have NOT undergone any form of quality control. These data are NOT guaranteed to be valid or correct.